createdAt,value
2022-12-01T00:00:14.653Z,1024.73
2022-12-01T00:01:11.497Z,1024.72
2022-12-01T00:02:11.547Z,1024.73
2022-12-01T00:03:11.524Z,1024.71
2022-12-01T00:04:11.396Z,1024.70
2022-12-01T00:05:11.345Z,1024.70
2022-12-01T00:06:11.386Z,1024.71
2022-12-01T00:07:11.267Z,1024.74
2022-12-01T00:08:11.225Z,1024.72
2022-12-01T00:09:15.178Z,1024.70
2022-12-01T00:10:11.289Z,1024.71
2022-12-01T00:11:11.135Z,1024.72
2022-12-01T00:12:11.141Z,1024.70
2022-12-01T00:13:11.040Z,1024.72
2022-12-01T00:14:11.002Z,1024.75
2022-12-01T00:15:10.975Z,1024.77
2022-12-01T00:16:10.976Z,1024.75
2022-12-01T00:17:10.894Z,1024.75
2022-12-01T00:18:10.935Z,1024.73
2022-12-01T00:19:10.840Z,1024.73
2022-12-01T00:20:10.789Z,1024.76
2022-12-01T00:21:10.743Z,1024.76
2022-12-01T00:22:10.705Z,1024.73
2022-12-01T00:23:10.686Z,1024.74
2022-12-01T00:24:10.686Z,1024.75
2022-12-01T00:25:10.595Z,1024.75
2022-12-01T00:26:10.561Z,1024.70
2022-12-01T00:27:10.514Z,1024.70
2022-12-01T00:28:10.483Z,1024.68
2022-12-01T00:29:10.442Z,1024.67
2022-12-01T00:30:10.467Z,1024.69
2022-12-01T00:31:10.377Z,1024.67
2022-12-01T00:32:10.390Z,1024.71
2022-12-01T00:33:10.297Z,1024.66
2022-12-01T00:34:11.610Z,1024.68
2022-12-01T00:35:10.224Z,1024.65
2022-12-01T00:36:10.237Z,1024.67
2022-12-01T00:37:10.147Z,1024.65
2022-12-01T00:38:10.116Z,1024.64
2022-12-01T00:39:10.067Z,1024.67
2022-12-01T00:40:10.036Z,1024.72
2022-12-01T00:41:10.074Z,1024.71
2022-12-01T00:42:13.237Z,1024.68
2022-12-01T00:43:09.920Z,1024.69
2022-12-01T00:44:09.893Z,1024.71
2022-12-01T00:45:09.852Z,1024.73
2022-12-01T00:46:09.941Z,1024.73
2022-12-01T00:47:09.848Z,1024.75
2022-12-01T00:48:09.731Z,1024.71
2022-12-01T00:49:09.692Z,1024.69
2022-12-01T00:50:09.664Z,1024.71
2022-12-01T00:51:09.632Z,1024.70
2022-12-01T00:52:09.599Z,1024.70
2022-12-01T00:53:09.625Z,1024.70
2022-12-01T00:54:09.523Z,1024.70
2022-12-01T00:55:09.469Z,1024.68
2022-12-01T00:56:09.445Z,1024.73
2022-12-01T00:57:09.406Z,1024.73
2022-12-01T00:58:09.357Z,1024.77
2022-12-01T00:59:09.387Z,1024.75
2022-12-01T01:00:09.290Z,1024.76
2022-12-01T01:01:09.303Z,1024.84
2022-12-01T01:02:09.243Z,1024.84
2022-12-01T01:03:09.160Z,1024.83
2022-12-01T01:04:09.125Z,1024.82
2022-12-01T01:05:09.152Z,1024.83
2022-12-01T01:06:09.043Z,1024.85
2022-12-01T01:07:09.022Z,1024.84
2022-12-01T01:08:09.118Z,1024.85
2022-12-01T01:09:08.930Z,1024.87
2022-12-01T01:10:08.890Z,1024.86
2022-12-01T01:11:08.932Z,1024.85
2022-12-01T01:12:08.824Z,1024.86
2022-12-01T01:13:08.784Z,1024.82
2022-12-01T01:14:08.745Z,1024.87
2022-12-01T01:15:08.711Z,1024.86
2022-12-01T01:16:08.746Z,1024.84
2022-12-01T01:17:08.743Z,1024.85
2022-12-01T01:18:08.608Z,1024.84
2022-12-01T01:19:08.565Z,1024.87
2022-12-01T01:20:08.510Z,1024.85
2022-12-01T01:21:08.490Z,1024.81
2022-12-01T01:22:08.441Z,1024.84
2022-12-01T01:23:08.456Z,1024.82
2022-12-01T01:24:08.375Z,1024.80
2022-12-01T01:25:08.329Z,1024.81
2022-12-01T01:26:08.278Z,1024.79
2022-12-01T01:27:08.261Z,1024.80
2022-12-01T01:28:08.211Z,1024.83
2022-12-01T01:29:08.238Z,1024.82
2022-12-01T01:30:08.172Z,1024.79
2022-12-01T01:31:08.156Z,1024.82
2022-12-01T01:32:08.057Z,1024.79
2022-12-01T01:33:08.016Z,1024.82
2022-12-01T01:34:08.003Z,1024.83
2022-12-01T01:35:07.998Z,1024.78
2022-12-01T01:36:07.899Z,1024.80
2022-12-01T01:37:07.876Z,1024.77
2022-12-01T01:38:07.833Z,1024.76
2022-12-01T01:39:07.791Z,1024.82
2022-12-01T01:40:07.756Z,1024.81
2022-12-01T01:41:07.784Z,1024.80
2022-12-01T01:42:07.678Z,1024.80
2022-12-01T01:43:07.641Z,1024.77
2022-12-01T01:44:07.595Z,1024.77
2022-12-01T01:45:07.560Z,1024.78
2022-12-01T01:46:07.590Z,1024.74
2022-12-01T01:47:07.548Z,1024.74
2022-12-01T01:48:07.453Z,1024.74
2022-12-01T01:49:07.412Z,1024.74
2022-12-01T01:50:07.403Z,1024.75
2022-12-01T01:51:07.352Z,1024.75
2022-12-01T01:52:07.309Z,1024.74
2022-12-01T01:53:07.357Z,1024.78
2022-12-01T01:54:07.247Z,1024.74
2022-12-01T01:55:07.319Z,1024.76
2022-12-01T01:56:07.146Z,1024.71
2022-12-01T01:57:07.181Z,1024.67
2022-12-01T01:58:07.078Z,1024.66
2022-12-01T01:59:07.032Z,1024.68
2022-12-01T02:00:07.002Z,1024.69
2022-12-01T02:01:06.997Z,1024.70
2022-12-01T02:02:07.020Z,1024.65
2022-12-01T02:03:06.930Z,1024.68
2022-12-01T02:04:06.874Z,1024.65
2022-12-01T02:05:06.813Z,1024.65
2022-12-01T02:06:06.786Z,1024.68
2022-12-01T02:07:06.798Z,1024.68
2022-12-01T02:08:06.751Z,1024.68
2022-12-01T02:09:06.666Z,1024.67
2022-12-01T02:10:06.631Z,1024.66
2022-12-01T02:11:06.587Z,1024.65
2022-12-01T02:12:06.632Z,1024.67
2022-12-01T02:13:06.530Z,1024.66
2022-12-01T02:14:06.479Z,1024.70
2022-12-01T02:15:06.430Z,1024.60
2022-12-01T02:16:06.394Z,1024.61
2022-12-01T02:17:06.401Z,1024.61
2022-12-01T02:18:06.379Z,1024.62
2022-12-01T02:19:06.284Z,1024.65
2022-12-01T02:20:06.249Z,1024.64
2022-12-01T02:21:06.202Z,1024.63
2022-12-01T02:22:06.174Z,1024.64
2022-12-01T02:23:06.171Z,1024.62
2022-12-01T02:24:06.158Z,1024.62
2022-12-01T02:25:06.056Z,1024.68
2022-12-01T02:26:06.018Z,1024.69
2022-12-01T02:27:05.981Z,1024.62
2022-12-01T02:28:05.940Z,1024.62
2022-12-01T02:29:05.909Z,1024.62
2022-12-01T02:30:05.937Z,1024.61
2022-12-01T02:31:05.907Z,1024.61
2022-12-01T02:32:05.785Z,1024.62
2022-12-01T02:33:05.747Z,1024.61
2022-12-01T02:34:05.720Z,1024.64
2022-12-01T02:35:05.674Z,1024.66
2022-12-01T02:36:05.714Z,1024.60
2022-12-01T02:37:05.596Z,1024.63
2022-12-01T02:38:05.565Z,1024.64
2022-12-01T02:39:05.531Z,1024.60
2022-12-01T02:40:05.488Z,1024.59
2022-12-01T02:41:05.463Z,1024.59
2022-12-01T02:42:05.466Z,1024.61
2022-12-01T02:43:05.372Z,1024.59
2022-12-01T02:44:05.333Z,1024.56
2022-12-01T02:45:05.296Z,1024.58
2022-12-01T02:46:05.310Z,1024.62
2022-12-01T02:47:05.228Z,1024.60
2022-12-01T02:48:05.249Z,1024.61
2022-12-01T02:49:05.140Z,1024.55
2022-12-01T02:50:05.124Z,1024.60
2022-12-01T02:51:05.065Z,1024.62
2022-12-01T02:52:05.041Z,1024.61
2022-12-01T02:53:04.992Z,1024.65
2022-12-01T02:54:05.019Z,1024.63
2022-12-01T02:55:04.927Z,1024.64
2022-12-01T02:56:04.879Z,1024.65
2022-12-01T02:57:04.844Z,1024.61
2022-12-01T02:58:04.804Z,1024.63
2022-12-01T02:59:04.766Z,1024.64
2022-12-01T03:00:04.796Z,1024.61
2022-12-01T03:01:04.723Z,1024.62
2022-12-01T03:02:04.656Z,1024.60
2022-12-01T03:03:04.639Z,1024.60
2022-12-01T03:04:04.574Z,1024.58
2022-12-01T03:05:04.543Z,1024.59
2022-12-01T03:06:04.562Z,1024.60
2022-12-01T03:07:04.467Z,1024.62
2022-12-01T03:08:04.459Z,1024.63
2022-12-01T03:09:04.392Z,1024.61
2022-12-01T03:10:04.376Z,1024.65
2022-12-01T03:11:04.312Z,1024.62
2022-12-01T03:12:04.326Z,1024.62
2022-12-01T03:13:04.240Z,1024.58
2022-12-01T03:14:04.193Z,1024.58
2022-12-01T03:15:04.157Z,1024.59
2022-12-01T03:16:04.193Z,1024.61
2022-12-01T03:17:04.807Z,1024.59
2022-12-01T03:18:04.102Z,1024.58
2022-12-01T03:19:04.007Z,1024.60
2022-12-01T03:20:03.980Z,1024.62
2022-12-01T03:21:03.978Z,1024.61
2022-12-01T03:22:03.896Z,1024.61
2022-12-01T03:23:03.848Z,1024.63
2022-12-01T03:24:03.813Z,1024.59
2022-12-01T03:25:03.793Z,1024.61
2022-12-01T03:26:03.805Z,1024.58
2022-12-01T03:27:03.846Z,1024.59
2022-12-01T03:28:23.036Z,1024.58
2022-12-01T03:29:03.626Z,1024.60
2022-12-01T03:30:03.586Z,1024.54
2022-12-01T03:31:03.587Z,1024.57
2022-12-01T03:32:03.565Z,1024.59
2022-12-01T03:33:03.465Z,1024.57
2022-12-01T03:34:03.439Z,1024.60
2022-12-01T03:35:03.400Z,1024.56
2022-12-01T03:36:03.366Z,1024.54
2022-12-01T03:37:03.324Z,1024.53
2022-12-01T03:38:03.346Z,1024.57
2022-12-01T03:39:03.248Z,1024.55
2022-12-01T03:40:03.213Z,1024.58
2022-12-01T03:41:03.178Z,1024.59
2022-12-01T03:42:03.144Z,1024.63
2022-12-01T03:43:03.092Z,1024.61
2022-12-01T03:44:03.103Z,1024.58
2022-12-01T03:45:03.029Z,1024.61
2022-12-01T03:46:03.068Z,1024.57
2022-12-01T03:47:02.946Z,1024.62
2022-12-01T03:48:02.898Z,1024.58
2022-12-01T03:49:02.861Z,1024.60
2022-12-01T03:50:02.887Z,1024.63
2022-12-01T03:51:02.796Z,1024.65
2022-12-01T03:52:02.754Z,1024.64
2022-12-01T03:53:02.720Z,1024.66
2022-12-01T03:54:02.680Z,1024.64
2022-12-01T03:55:02.646Z,1024.66
2022-12-01T03:56:02.658Z,1024.66
2022-12-01T03:57:02.588Z,1024.64
2022-12-01T03:58:02.534Z,1024.67
2022-12-01T03:59:02.495Z,1024.67
2022-12-01T04:00:02.456Z,1024.73
2022-12-01T04:01:02.444Z,1024.71
2022-12-01T04:02:02.515Z,1024.72
2022-12-01T04:03:02.441Z,1024.67
2022-12-01T04:04:02.324Z,1024.69
2022-12-01T04:05:02.264Z,1024.74
2022-12-01T04:06:02.231Z,1024.72
2022-12-01T04:07:02.260Z,1024.72
2022-12-01T04:08:02.270Z,1024.74
2022-12-01T04:09:02.120Z,1024.75
2022-12-01T04:10:02.084Z,1024.73
2022-12-01T04:11:02.031Z,1024.72
2022-12-01T04:12:01.995Z,1024.67
2022-12-01T04:13:01.978Z,1024.71
2022-12-01T04:14:01.990Z,1024.70
2022-12-01T04:15:01.885Z,1024.73
2022-12-01T04:16:01.882Z,1024.74
2022-12-01T04:17:01.803Z,1024.75
2022-12-01T04:18:01.780Z,1024.74
2022-12-01T04:19:01.736Z,1024.77
2022-12-01T04:20:01.746Z,1024.76
2022-12-01T04:21:01.663Z,1024.74
2022-12-01T04:22:01.619Z,1024.73
2022-12-01T04:23:01.577Z,1024.73
2022-12-01T04:24:01.534Z,1024.77
2022-12-01T04:25:01.521Z,1024.76
2022-12-01T04:26:01.621Z,1024.71
2022-12-01T04:27:01.429Z,1024.69
2022-12-01T04:28:01.388Z,1024.70
2022-12-01T04:29:01.364Z,1024.73
2022-12-01T04:30:01.313Z,1024.74
2022-12-01T04:31:01.418Z,1024.74
2022-12-01T04:32:01.309Z,1024.75
2022-12-01T04:33:01.203Z,1024.74
2022-12-01T04:34:01.155Z,1024.76
2022-12-01T04:35:01.112Z,1024.79
2022-12-01T04:36:01.096Z,1024.79
2022-12-01T04:37:01.049Z,1024.78
2022-12-01T04:38:01.091Z,1024.78
2022-12-01T04:39:00.970Z,1024.82
2022-12-01T04:40:00.931Z,1024.83
2022-12-01T04:41:00.900Z,1024.82
2022-12-01T04:42:00.852Z,1024.83
2022-12-01T04:43:00.811Z,1024.84
2022-12-01T04:44:00.841Z,1024.85
2022-12-01T04:45:00.742Z,1024.81
2022-12-01T04:46:00.697Z,1024.85
2022-12-01T04:47:00.711Z,1024.81
2022-12-01T04:48:00.629Z,1024.84
2022-12-01T04:49:00.599Z,1024.88
2022-12-01T04:50:00.634Z,1024.84
2022-12-01T04:51:00.516Z,1024.89
2022-12-01T04:52:00.491Z,1024.86
2022-12-01T04:53:00.435Z,1024.87
2022-12-01T04:54:00.396Z,1024.85
2022-12-01T04:55:00.358Z,1024.90
2022-12-01T04:56:00.377Z,1024.90
2022-12-01T04:57:00.295Z,1024.90
2022-12-01T04:58:00.245Z,1024.91
2022-12-01T04:59:00.212Z,1024.89
2022-12-01T05:00:00.178Z,1024.89
2022-12-01T05:01:00.158Z,1024.88
2022-12-01T05:02:00.213Z,1024.90
2022-12-01T05:03:00.074Z,1024.92
2022-12-01T05:04:00.033Z,1024.93
2022-12-01T05:04:59.986Z,1024.93
2022-12-01T05:05:59.956Z,1024.88
2022-12-01T05:06:59.909Z,1024.91
2022-12-01T05:07:59.987Z,1024.89
2022-12-01T05:08:59.835Z,1024.91
2022-12-01T05:09:59.791Z,1024.89
2022-12-01T05:10:59.756Z,1024.90
2022-12-01T05:11:59.722Z,1024.91
2022-12-01T05:12:59.690Z,1024.90
2022-12-01T05:13:59.707Z,1024.92
2022-12-01T05:14:59.616Z,1024.94
2022-12-01T05:15:59.610Z,1024.90
2022-12-01T05:16:59.539Z,1024.93
2022-12-01T05:17:59.495Z,1024.89
2022-12-01T05:18:59.529Z,1024.93
2022-12-01T05:19:59.471Z,1024.98
2022-12-01T05:20:59.380Z,1024.96
2022-12-01T05:21:59.344Z,1024.97
2022-12-01T05:23:07.106Z,1024.96
2022-12-01T05:23:59.262Z,1024.93
2022-12-01T05:24:59.229Z,1024.92
2022-12-01T05:25:59.257Z,1024.96
2022-12-01T05:26:59.159Z,1024.96
2022-12-01T05:27:59.127Z,1024.96
2022-12-01T05:28:59.073Z,1024.95
2022-12-01T05:29:59.052Z,1024.99
2022-12-01T05:30:58.999Z,1024.97
2022-12-01T05:31:59.050Z,1025.01
2022-12-01T05:32:58.927Z,1025.02
2022-12-01T05:33:58.892Z,1025.03
2022-12-01T05:34:58.853Z,1024.98
2022-12-01T05:35:58.815Z,1025.06
2022-12-01T05:36:58.771Z,1025.02
2022-12-01T05:38:01.915Z,1025.03
2022-12-01T05:38:58.709Z,1025.06
2022-12-01T05:39:58.663Z,1025.02
2022-12-01T05:40:58.627Z,1025.04
2022-12-01T05:41:58.584Z,1025.06
2022-12-01T05:42:58.554Z,1025.03
2022-12-01T05:43:58.581Z,1025.06
2022-12-01T05:44:58.483Z,1025.12
2022-12-01T05:45:58.496Z,1025.11
2022-12-01T05:46:58.407Z,1025.08
2022-12-01T05:47:58.361Z,1025.08
2022-12-01T05:48:58.335Z,1025.08
2022-12-01T05:50:02.212Z,1025.11
2022-12-01T05:50:58.251Z,1025.10
2022-12-01T05:51:58.226Z,1025.08
2022-12-01T05:52:58.175Z,1025.09
2022-12-01T05:53:58.146Z,1025.11
2022-12-01T05:54:58.126Z,1025.13
2022-12-01T05:55:58.140Z,1025.17
2022-12-01T05:56:58.040Z,1025.19
2022-12-01T05:57:57.985Z,1025.20
2022-12-01T05:58:57.957Z,1025.16
2022-12-01T05:59:57.908Z,1025.16
2022-12-01T06:00:57.887Z,1025.15
2022-12-01T06:01:57.950Z,1025.18
2022-12-01T06:02:57.804Z,1025.19
2022-12-01T06:03:57.807Z,1025.16
2022-12-01T06:04:57.726Z,1025.19
2022-12-01T06:05:57.681Z,1025.18
2022-12-01T06:06:57.648Z,1025.22
2022-12-01T06:07:57.726Z,1025.17
2022-12-01T06:08:57.570Z,1025.19
2022-12-01T06:09:57.538Z,1025.18
2022-12-01T06:10:57.515Z,1025.15
2022-12-01T06:11:57.466Z,1025.22
2022-12-01T06:12:57.425Z,1025.20
2022-12-01T06:13:57.499Z,1025.16
2022-12-01T06:14:57.354Z,1025.24
2022-12-01T06:15:57.305Z,1025.17
2022-12-01T06:16:57.372Z,1025.24
2022-12-01T06:17:57.235Z,1025.17
2022-12-01T06:18:57.205Z,1025.19
2022-12-01T06:19:57.166Z,1025.23
2022-12-01T06:20:57.115Z,1025.24
2022-12-01T06:21:57.145Z,1025.21
2022-12-01T06:22:57.039Z,1025.26
2022-12-01T06:23:57.000Z,1025.25
2022-12-01T06:24:56.966Z,1025.24
2022-12-01T06:25:56.922Z,1025.26
2022-12-01T06:26:56.952Z,1025.28
2022-12-01T06:27:56.853Z,1025.26
2022-12-01T06:28:56.811Z,1025.25
2022-12-01T06:29:56.775Z,1025.28
2022-12-01T06:31:02.759Z,1025.25
2022-12-01T06:31:56.762Z,1025.26
2022-12-01T06:32:56.723Z,1025.30
2022-12-01T06:33:56.633Z,1025.22
2022-12-01T06:34:56.590Z,1025.24
2022-12-01T06:35:56.560Z,1025.21
2022-12-01T06:36:56.511Z,1025.26
2022-12-01T06:37:56.477Z,1025.25
2022-12-01T06:38:56.496Z,1025.28
2022-12-01T06:39:56.405Z,1025.27
2022-12-01T06:40:56.367Z,1025.33
2022-12-01T06:41:56.324Z,1025.32
2022-12-01T06:42:56.286Z,1025.33
2022-12-01T06:43:56.243Z,1025.34
2022-12-01T06:44:56.261Z,1025.31
2022-12-01T06:46:01.237Z,1025.32
2022-12-01T06:46:56.134Z,1025.30
2022-12-01T06:47:56.104Z,1025.32
2022-12-01T06:48:56.051Z,1025.34
2022-12-01T06:49:56.016Z,1025.36
2022-12-01T06:50:56.045Z,1025.37
2022-12-01T06:51:55.950Z,1025.36
2022-12-01T06:52:55.900Z,1025.37
2022-12-01T06:53:57.713Z,1025.42
2022-12-01T06:54:55.834Z,1025.43
2022-12-01T06:55:55.800Z,1025.49
2022-12-01T06:56:55.809Z,1025.47
2022-12-01T06:57:55.721Z,1025.47
2022-12-01T06:58:55.684Z,1025.52
2022-12-01T06:59:55.639Z,1025.50
2022-12-01T07:00:55.662Z,1025.50
2022-12-01T07:01:55.618Z,1025.49
2022-12-01T07:02:55.632Z,1025.51
2022-12-01T07:03:55.499Z,1025.55
2022-12-01T07:04:55.452Z,1025.55
2022-12-01T07:05:55.418Z,1025.56
2022-12-01T07:06:55.373Z,1025.60
2022-12-01T07:07:59.535Z,1025.52
2022-12-01T07:08:55.372Z,1025.60
2022-12-01T07:09:55.257Z,1025.63
2022-12-01T07:10:55.231Z,1025.61
2022-12-01T07:11:55.197Z,1025.59
2022-12-01T07:12:55.154Z,1025.59
2022-12-01T07:13:55.109Z,1025.61
2022-12-01T07:14:55.126Z,1025.62
2022-12-01T07:15:55.038Z,1025.59
2022-12-01T07:16:55.151Z,1025.63
2022-12-01T07:17:54.963Z,1025.61
2022-12-01T07:18:54.918Z,1025.60
2022-12-01T07:19:54.885Z,1025.63
2022-12-01T07:20:54.845Z,1025.63
2022-12-01T07:21:54.812Z,1025.62
2022-12-01T07:22:54.825Z,1025.62
2022-12-01T07:23:54.749Z,1025.62
2022-12-01T07:24:54.696Z,1025.63
2022-12-01T07:25:54.662Z,1025.58
2022-12-01T07:26:54.617Z,1025.63
2022-12-01T07:27:54.641Z,1025.61
2022-12-01T07:28:54.548Z,1025.53
2022-12-01T07:29:54.508Z,1025.55
2022-12-01T07:30:54.517Z,1025.56
2022-12-01T07:31:54.448Z,1025.51
2022-12-01T07:32:54.402Z,1025.52
2022-12-01T07:33:54.415Z,1025.56
2022-12-01T07:34:54.321Z,1025.60
2022-12-01T07:35:54.286Z,1025.60
2022-12-01T07:36:54.249Z,1025.57
2022-12-01T07:37:54.205Z,1025.55
2022-12-01T07:38:54.162Z,1025.59
2022-12-01T07:39:54.179Z,1025.60
2022-12-01T07:40:54.097Z,1025.59
2022-12-01T07:41:54.061Z,1025.61
2022-12-01T07:42:54.016Z,1025.60
2022-12-01T07:43:53.983Z,1025.61
2022-12-01T07:44:53.945Z,1025.65
2022-12-01T07:45:53.981Z,1025.60
2022-12-01T07:46:53.860Z,1025.64
2022-12-01T07:47:53.832Z,1025.62
2022-12-01T07:48:53.800Z,1025.63
2022-12-01T07:49:54.209Z,1025.62
2022-12-01T07:50:53.721Z,1025.62
2022-12-01T07:51:53.678Z,1025.60
2022-12-01T07:52:53.669Z,1025.60
2022-12-01T07:53:53.619Z,1025.60
2022-12-01T07:54:53.573Z,1025.60
2022-12-01T07:55:53.693Z,1025.58
2022-12-01T07:56:53.491Z,1025.61
2022-12-01T07:57:53.453Z,1025.59
2022-12-01T07:58:53.410Z,1025.61
2022-12-01T07:59:53.382Z,1025.60
2022-12-01T08:00:53.334Z,1025.63
2022-12-01T08:01:53.423Z,1025.60
2022-12-01T08:02:53.309Z,1025.65
2022-12-01T08:03:53.227Z,1025.64
2022-12-01T08:04:53.197Z,1025.64
2022-12-01T08:05:53.163Z,1025.67
2022-12-01T08:06:53.166Z,1025.62
2022-12-01T08:07:53.105Z,1025.62
2022-12-01T08:08:53.071Z,1025.64
2022-12-01T08:09:53.001Z,1025.62
2022-12-01T08:10:52.965Z,1025.69
2022-12-01T08:11:52.948Z,1025.69
2022-12-01T08:12:52.943Z,1025.68
2022-12-01T08:13:52.847Z,1025.66
2022-12-01T08:14:52.806Z,1025.71
2022-12-01T08:15:52.807Z,1025.70
2022-12-01T08:16:52.740Z,1025.70
2022-12-01T08:17:52.690Z,1025.74
2022-12-01T08:18:52.709Z,1025.77
2022-12-01T08:19:52.630Z,1025.76
2022-12-01T08:20:52.577Z,1025.81
2022-12-01T08:21:52.543Z,1025.79
2022-12-01T08:22:52.512Z,1025.77
2022-12-01T08:23:52.474Z,1025.78
2022-12-01T08:24:52.487Z,1025.76
2022-12-01T08:25:52.393Z,1025.73
2022-12-01T08:26:52.397Z,1025.75
2022-12-01T08:27:52.320Z,1025.78
2022-12-01T08:28:52.278Z,1025.82
2022-12-01T08:29:52.240Z,1025.77
2022-12-01T08:30:52.298Z,1025.73
2022-12-01T08:31:52.165Z,1025.78
2022-12-01T08:32:52.132Z,1025.74
2022-12-01T08:33:52.096Z,1025.73
2022-12-01T08:34:53.779Z,1025.78
2022-12-01T08:35:52.026Z,1025.73
2022-12-01T08:36:52.044Z,1025.76
2022-12-01T08:37:51.938Z,1025.78
2022-12-01T08:38:51.901Z,1025.76
2022-12-01T08:39:52.056Z,1025.74
2022-12-01T08:40:51.831Z,1025.75
2022-12-01T08:41:51.786Z,1025.73
2022-12-01T08:42:51.869Z,1025.76
2022-12-01T08:43:59.623Z,1025.70
2022-12-01T08:44:51.763Z,1025.74
2022-12-01T08:45:51.636Z,1025.81
2022-12-01T08:46:51.625Z,1025.79
2022-12-01T08:47:51.576Z,1025.77
2022-12-01T08:48:51.585Z,1025.80
2022-12-01T08:49:51.733Z,1025.82
2022-12-01T08:50:51.514Z,1025.83
2022-12-01T08:51:51.414Z,1025.82
2022-12-01T08:52:51.373Z,1025.87
2022-12-01T08:53:51.338Z,1025.87
2022-12-01T08:54:51.292Z,1025.88
2022-12-01T08:55:51.322Z,1025.89
2022-12-01T08:56:51.230Z,1025.90
2022-12-01T08:57:51.185Z,1025.89
2022-12-01T08:58:51.155Z,1025.92
2022-12-01T08:59:51.540Z,1025.90
2022-12-01T09:00:51.073Z,1025.91
2022-12-01T09:01:51.160Z,1025.90
2022-12-01T09:02:51.031Z,1025.94
2022-12-01T09:03:50.965Z,1025.95
2022-12-01T09:04:50.921Z,1025.95
2022-12-01T09:05:50.890Z,1025.94
2022-12-01T09:06:50.840Z,1025.97
2022-12-01T09:07:50.927Z,1025.99
2022-12-01T09:08:50.767Z,1026.00
2022-12-01T09:09:50.962Z,1025.99
2022-12-01T09:10:50.814Z,1025.99
2022-12-01T09:11:50.843Z,1026.00
2022-12-01T09:12:50.667Z,1025.98
2022-12-01T09:13:54.582Z,1026.01
2022-12-01T09:14:50.559Z,1025.99
2022-12-01T09:15:50.561Z,1026.03
2022-12-01T09:16:50.506Z,1026.00
2022-12-01T09:17:50.436Z,1026.02
2022-12-01T09:18:50.462Z,1025.99
2022-12-01T09:19:50.746Z,1026.01
2022-12-01T09:20:50.322Z,1025.99
2022-12-01T09:21:50.305Z,1026.01
2022-12-01T09:22:50.252Z,1025.99
2022-12-01T09:23:50.221Z,1026.09
2022-12-01T09:24:50.173Z,1026.02
2022-12-01T09:25:50.207Z,1026.01
2022-12-01T09:26:50.100Z,1025.97
2022-12-01T09:27:50.062Z,1025.96
2022-12-01T09:28:50.025Z,1025.95
2022-12-01T09:29:50.275Z,1025.96
2022-12-01T09:30:49.968Z,1025.95
2022-12-01T09:31:49.983Z,1025.94
2022-12-01T09:32:49.899Z,1025.94
2022-12-01T09:33:49.835Z,1025.95
2022-12-01T09:34:49.803Z,1025.96
2022-12-01T09:35:49.769Z,1025.92
2022-12-01T09:36:49.724Z,1025.92
2022-12-01T09:37:49.741Z,1025.94
2022-12-01T09:38:49.648Z,1025.93
2022-12-01T09:39:49.838Z,1025.93
2022-12-01T09:40:49.581Z,1025.88
2022-12-01T09:41:49.541Z,1025.91
2022-12-01T09:42:49.499Z,1025.86
2022-12-01T09:43:49.680Z,1025.88
2022-12-01T09:44:49.424Z,1025.92
2022-12-01T09:45:49.385Z,1025.87
2022-12-01T09:46:49.500Z,1025.84
2022-12-01T09:47:49.319Z,1025.81
2022-12-01T09:48:49.285Z,1025.83
2022-12-01T09:49:49.588Z,1025.84
2022-12-01T09:50:49.208Z,1025.81
2022-12-01T09:51:49.166Z,1025.85
2022-12-01T09:52:49.131Z,1025.86
2022-12-01T09:53:49.092Z,1025.86
2022-12-01T09:54:49.067Z,1025.88
2022-12-01T09:55:49.070Z,1025.84
2022-12-01T09:56:48.985Z,1025.81
2022-12-01T09:57:48.951Z,1025.80
2022-12-01T09:58:48.970Z,1025.80
2022-12-01T09:59:49.135Z,1025.83
2022-12-01T10:00:48.961Z,1025.79
2022-12-01T10:01:48.907Z,1025.79
2022-12-01T10:02:48.760Z,1025.76
2022-12-01T10:03:48.820Z,1025.78
2022-12-01T10:04:48.684Z,1025.74
2022-12-01T10:06:24.649Z,1025.75
2022-12-01T10:06:48.609Z,1025.72
2022-12-01T10:07:48.701Z,1025.74
2022-12-01T10:08:57.942Z,1025.69
2022-12-01T10:09:48.864Z,1025.73
2022-12-01T10:10:48.466Z,1025.68
2022-12-01T10:11:48.416Z,1025.66
2022-12-01T10:12:48.391Z,1025.67
2022-12-01T10:13:48.402Z,1025.67
2022-12-01T10:14:48.324Z,1025.68
2022-12-01T10:15:48.273Z,1025.66
2022-12-01T10:16:48.242Z,1025.64
2022-12-01T10:17:48.198Z,1025.63
2022-12-01T10:18:48.172Z,1025.66
2022-12-01T10:19:48.505Z,1025.67
2022-12-01T10:20:48.087Z,1025.67
2022-12-01T10:21:48.061Z,1025.65
2022-12-01T10:22:48.057Z,1025.68
2022-12-01T10:23:47.976Z,1025.69
2022-12-01T10:24:47.943Z,1025.67
2022-12-01T10:25:47.963Z,1025.67
2022-12-01T10:26:47.864Z,1025.66
2022-12-01T10:27:47.847Z,1025.66
2022-12-01T10:28:47.797Z,1025.68
2022-12-01T10:29:48.243Z,1025.67
2022-12-01T10:30:47.720Z,1025.64
2022-12-01T10:31:47.824Z,1025.65
2022-12-01T10:32:47.655Z,1025.58
2022-12-01T10:33:47.606Z,1025.61
2022-12-01T10:34:47.572Z,1025.59
2022-12-01T10:35:47.533Z,1025.57
2022-12-01T10:36:47.505Z,1025.58
2022-12-01T10:37:47.591Z,1025.60
2022-12-01T10:38:47.421Z,1025.61
2022-12-01T10:39:48.042Z,1025.61
2022-12-01T10:40:47.353Z,1025.58
2022-12-01T10:41:47.317Z,1025.62
2022-12-01T10:42:47.286Z,1025.59
2022-12-01T10:43:47.292Z,1025.56
2022-12-01T10:44:47.204Z,1025.56
2022-12-01T10:45:47.196Z,1025.56
2022-12-01T10:46:47.137Z,1025.55
2022-12-01T10:47:47.107Z,1025.54
2022-12-01T10:48:47.053Z,1025.49
2022-12-01T10:49:47.156Z,1025.54
2022-12-01T10:50:46.985Z,1025.52
2022-12-01T10:51:46.960Z,1025.54
2022-12-01T10:52:46.967Z,1025.54
2022-12-01T10:53:46.884Z,1025.52
2022-12-01T10:54:46.847Z,1025.52
2022-12-01T10:55:48.198Z,1025.54
2022-12-01T10:56:46.766Z,1025.54
2022-12-01T10:57:46.782Z,1025.54
2022-12-01T10:58:46.691Z,1025.51
2022-12-01T10:59:46.729Z,1025.49
2022-12-01T11:01:02.290Z,1025.45
2022-12-01T11:01:46.686Z,1025.49
2022-12-01T11:02:46.795Z,1025.52
2022-12-01T11:03:46.542Z,1025.49
2022-12-01T11:04:46.469Z,1025.50
2022-12-01T11:05:46.695Z,1025.47
2022-12-01T11:06:46.446Z,1025.48
2022-12-01T11:07:46.467Z,1025.51
2022-12-01T11:08:46.330Z,1025.51
2022-12-01T11:09:46.293Z,1025.50
2022-12-01T11:10:46.336Z,1025.48
2022-12-01T11:11:46.221Z,1025.53
2022-12-01T11:12:46.239Z,1025.53
2022-12-01T11:13:46.138Z,1025.46
2022-12-01T11:14:46.105Z,1025.51
2022-12-01T11:15:46.064Z,1025.51
2022-12-01T11:16:46.140Z,1025.51
2022-12-01T11:17:46.003Z,1025.46
2022-12-01T11:18:46.619Z,1025.46
2022-12-01T11:19:45.986Z,1025.47
2022-12-01T11:20:45.979Z,1025.46
2022-12-01T11:21:45.842Z,1025.45
2022-12-01T11:22:45.809Z,1025.44
2022-12-01T11:23:46.021Z,1025.40
2022-12-01T11:24:45.766Z,1025.45
2022-12-01T11:25:45.704Z,1025.42
2022-12-01T11:26:45.674Z,1025.41
2022-12-01T11:27:45.623Z,1025.45
2022-12-01T11:28:45.644Z,1025.42
2022-12-01T11:29:45.546Z,1025.39
2022-12-01T11:30:45.520Z,1025.38
2022-12-01T11:31:45.509Z,1025.40
2022-12-01T11:32:45.444Z,1025.36
2022-12-01T11:33:45.459Z,1025.36
2022-12-01T11:34:45.367Z,1025.35
2022-12-01T11:35:45.328Z,1025.29
2022-12-01T11:36:45.302Z,1025.31
2022-12-01T11:37:54.815Z,1025.30
2022-12-01T11:38:45.217Z,1025.27
2022-12-01T11:39:45.335Z,1025.27
2022-12-01T11:40:45.149Z,1025.27
2022-12-01T11:41:45.102Z,1025.34
2022-12-01T11:42:45.078Z,1025.33
2022-12-01T11:43:47.644Z,1025.34
2022-12-01T11:44:51.290Z,1025.39
2022-12-01T11:45:45.125Z,1025.40
2022-12-01T11:46:50.360Z,1025.39
2022-12-01T11:47:44.943Z,1025.40
2022-12-01T11:48:44.891Z,1025.43
2022-12-01T11:49:47.249Z,1025.38
2022-12-01T11:50:44.835Z,1025.42
2022-12-01T11:51:44.734Z,1025.40
2022-12-01T11:52:44.700Z,1025.42
2022-12-01T11:53:44.689Z,1025.44
2022-12-01T11:54:44.632Z,1025.44
2022-12-01T11:55:44.588Z,1025.43
2022-12-01T11:56:44.611Z,1025.45
2022-12-01T11:57:44.515Z,1025.42
2022-12-01T11:58:44.522Z,1025.42
2022-12-01T11:59:44.451Z,1025.40
2022-12-01T12:00:44.414Z,1025.41
2022-12-01T12:01:44.366Z,1025.40
2022-12-01T12:02:44.502Z,1025.42
2022-12-01T12:03:44.370Z,1025.42
2022-12-01T12:04:44.267Z,1025.41